KPIA/PIA METAR and TAF weather

Enter ICAO airport designator
Station Type Date Time Source
KPIA METAR 2018/12/17 16:54 UTC NOAA

KPIA 171654Z VRB06KT 10SM CLR 04/M04 A3026 RMK AO2 SLP252 T00441039


Station Type Date Time Source
KPIA Decoded METAR 2018/12/17 16:54 UTC NOAA

GREATER PEORIA REGIONAL AIRPORT , IL, United States (KPIA) 40-40N 89-41W 205M
Dec 17, 2018 - 11:54 AM EST / 2018.12.17 1654 UTC
Wind: Variable at 7 MPH (6 KT):0
Visibility: 10 mile(s):0
Sky conditions: clear
Temperature: 39.9 F (4.4 C)
Dew Point: 25.0 F (-3.9 C)
Relative Humidity: 54%
Pressure (altimeter): 30.26 in. Hg (1024 hPa)
ob: KPIA 171654Z VRB06KT 10SM CLR 04/M04 A3026 RMK AO2 SLP252 T00441039
cycle: 17

Station Type Date Time Source
KPIA TAF 2018/12/17 12:40 UTC NOAA

TAF KPIA 171138Z 1712/1812 32005KT P6SM BKN200
FM171400 33006KT P6SM SCT250
FM172200 VRB02KT P6SM SKC


Example: see airport list